Time;durP1;ratioP1;P1;durP2;ratioP2;P2;SDS_P1;SDS_P2;PMS_P1;PMS_P2;Temp;Humidity;BMP_temperature;BMP_pressure;BME280_temperature;BME280_humidity;BME280_pressure;Samples;Min_cycle;Max_cycle;Signal;HPM_P1;HPM_P2
2022/02/25 00:02:20;;;;;;;1.70;0.35;;;;;;;;;;5071613;28;20037;-45
2022/02/25 00:04:46;;;;;;;1.40;0.50;;;;;;;;;;5088211;28;20032;-47
2022/02/25 00:07:12;;;;;;;0.30;0.30;;;;;;;;;;5091656;28;20019;-46
2022/02/25 00:09:38;;;;;;;0.30;0.28;;;;;;;;;;5090884;28;20024;-45
2022/02/25 00:12:04;;;;;;;0.50;0.40;;;;;;;;;;5082586;28;20461;-45
2022/02/25 00:14:30;;;;;;;1.10;0.40;;;;;;;;;;5069885;28;20055;-44
2022/02/25 00:16:56;;;;;;;1.02;0.47;;;;;;;;;;5086446;28;20033;-47
2022/02/25 00:19:43;;;;;;;1.23;0.52;;;;;;;;;;5080211;28;20032;-46
2022/02/25 00:22:09;;;;;;;1.05;0.55;;;;;;;;;;5080392;28;20028;-45
2022/02/25 00:24:36;;;;;;;0.70;0.40;;;;;;;;;;5078662;28;20031;-46
2022/02/25 00:27:02;;;;;;;0.90;0.65;;;;;;;;;;5081872;28;20017;-49
2022/02/25 00:29:28;;;;;;;0.80;0.50;;;;;;;;;;5080045;28;20035;-47
2022/02/25 00:31:54;;;;;;;1.55;1.15;;;;;;;;;;5081223;28;20135;-46
2022/02/25 00:34:20;;;;;;;0.43;0.40;;;;;;;;;;5060992;28;20510;-49
2022/02/25 00:36:46;;;;;;;1.35;0.50;;;;;;;;;;5080748;28;20099;-47
2022/02/25 00:39:12;;;;;;;0.60;0.47;;;;;;;;;;5079919;28;20046;-49
2022/02/25 00:41:38;;;;;;;0.75;0.40;;;;;;;;;;5082555;28;20429;-49
2022/02/25 00:44:04;;;;;;;0.75;0.60;;;;;;;;;;5084601;28;20020;-49
2022/02/25 00:46:30;;;;;;;0.70;0.40;;;;;;;;;;5082587;28;20474;-47
2022/02/25 00:48:56;;;;;;;0.73;0.40;;;;;;;;;;5082771;28;20031;-46
2022/02/25 00:51:22;;;;;;;3.05;0.45;;;;;;;;;;5084508;28;20020;-51
2022/02/25 00:53:48;;;;;;;1.58;0.77;;;;;;;;;;5084045;28;20107;-45
2022/02/25 00:56:14;;;;;;;0.30;0.30;;;;;;;;;;5083812;28;20049;-50
2022/02/25 00:58:40;;;;;;;0.30;0.30;;;;;;;;;;5082354;28;20445;-45
2022/02/25 01:01:06;;;;;;;0.70;0.28;;;;;;;;;;5083684;28;20032;-45
2022/02/25 01:03:35;;;;;;;0.75;0.30;;;;;;;;;;5084824;28;20028;-44
2022/02/25 01:06:01;;;;;;;0.57;0.30;;;;;;;;;;5082557;28;20025;-44
2022/02/25 01:08:27;;;;;;;1.10;0.38;;;;;;;;;;5082655;28;20032;-46
2022/02/25 01:10:53;;;;;;;0.90;0.30;;;;;;;;;;5083724;28;20018;-44
2022/02/25 01:13:19;;;;;;;1.30;0.40;;;;;;;;;;5084453;28;20032;-45
2022/02/25 01:15:45;;;;;;;0.75;0.30;;;;;;;;;;5082857;28;20048;-44
2022/02/25 01:18:11;;;;;;;0.30;0.30;;;;;;;;;;5082927;28;20028;-44
2022/02/25 01:20:37;;;;;;;1.17;0.63;;;;;;;;;;5081231;28;20055;-44
2022/02/25 01:23:03;;;;;;;0.40;0.40;;;;;;;;;;5073844;28;20481;-44
2022/02/25 01:25:30;;;;;;;3.85;0.95;;;;;;;;;;5077271;28;20389;-45
2022/02/25 01:27:56;;;;;;;0.40;0.38;;;;;;;;;;5074341;28;20020;-44
2022/02/25 01:30:22;;;;;;;0.22;0.20;;;;;;;;;;5073633;28;20031;-49
2022/02/25 01:32:48;;;;;;;0.50;0.40;;;;;;;;;;5073386;28;20021;-45
2022/02/25 01:35:14;;;;;;;0.20;0.20;;;;;;;;;;5080502;28;20070;-44
2022/02/25 01:37:40;;;;;;;2.30;0.32;;;;;;;;;;5093470;28;20028;-44
2022/02/25 01:40:07;;;;;;;0.93;0.47;;;;;;;;;;5093750;28;20526;-44
2022/02/25 01:42:43;;;;;;;0.38;0.30;;;;;;;;;;5092791;28;20035;-45
2022/02/25 01:45:09;;;;;;;0.75;0.32;;;;;;;;;;5076077;28;20450;-45
2022/02/25 01:47:35;;;;;;;0.93;0.43;;;;;;;;;;5073347;28;20111;-44
2022/02/25 01:50:01;;;;;;;0.68;0.32;;;;;;;;;;5073708;28;20512;-44
2022/02/25 01:52:27;;;;;;;1.52;0.63;;;;;;;;;;5073721;28;20049;-47
2022/02/25 01:54:53;;;;;;;1.13;0.47;;;;;;;;;;5073725;28;20060;-44
2022/02/25 01:57:19;;;;;;;0.90;0.40;;;;;;;;;;5073210;28;20351;-47
2022/02/25 01:59:45;;;;;;;1.02;0.40;;;;;;;;;;5092864;28;20026;-44
2022/02/25 02:02:11;;;;;;;0.50;0.30;;;;;;;;;;5093628;28;20118;-44
2022/02/25 02:04:37;;;;;;;0.85;0.32;;;;;;;;;;5093609;28;20201;-45
2022/02/25 02:07:04;;;;;;;0.80;0.60;;;;;;;;;;5093765;28;20496;-44
2022/02/25 02:09:30;;;;;;;0.68;0.30;;;;;;;;;;5079873;28;20032;-44
2022/02/25 02:11:56;;;;;;;0.47;0.47;;;;;;;;;;5083342;28;20024;-46
2022/02/25 02:14:23;;;;;;;1.27;0.40;;;;;;;;;;5092934;28;20071;-45
2022/02/25 02:16:50;;;;;;;0.65;0.28;;;;;;;;;;5092896;28;20093;-45
2022/02/25 02:19:17;;;;;;;1.13;0.40;;;;;;;;;;5083259;28;20078;-45
2022/02/25 02:21:44;;;;;;;0.55;0.30;;;;;;;;;;5073212;28;20036;-44
2022/02/25 02:24:10;;;;;;;0.40;0.20;;;;;;;;;;5073392;28;20347;-46
2022/02/25 02:26:37;;;;;;;0.63;0.40;;;;;;;;;;5072205;28;20032;-45
2022/02/25 02:29:04;;;;;;;0.70;0.40;;;;;;;;;;5074051;28;20153;-46
2022/02/25 02:31:30;;;;;;;0.40;0.30;;;;;;;;;;5064271;28;20035;-45
2022/02/25 02:33:56;;;;;;;0.65;0.20;;;;;;;;;;5093224;28;20020;-45
2022/02/25 02:36:22;;;;;;;1.02;0.40;;;;;;;;;;5093099;28;20149;-45
2022/02/25 02:38:48;;;;;;;0.20;0.20;;;;;;;;;;5085162;28;20055;-46
2022/02/25 02:41:14;;;;;;;2.35;0.30;;;;;;;;;;5076218;28;20039;-45
2022/02/25 02:43:40;;;;;;;0.50;0.20;;;;;;;;;;5078066;28;20028;-44
2022/02/25 02:46:07;;;;;;;0.73;0.32;;;;;;;;;;5092655;28;20024;-47
2022/02/25 02:48:33;;;;;;;1.98;0.40;;;;;;;;;;5092204;28;20093;-44
2022/02/25 02:50:59;;;;;;;0.85;0.38;;;;;;;;;;5085307;28;20028;-45
2022/02/25 02:53:25;;;;;;;0.70;0.50;;;;;;;;;;5072395;28;20025;-46
2022/02/25 02:55:51;;;;;;;1.33;0.80;;;;;;;;;;5072072;28;20020;-44
2022/02/25 02:58:17;;;;;;;0.55;0.32;;;;;;;;;;5091670;28;20035;-45
2022/02/25 03:00:44;;;;;;;0.57;0.38;;;;;;;;;;5089071;28;20020;-45
2022/02/25 03:03:10;;;;;;;0.30;0.30;;;;;;;;;;5071622;28;20424;-45
2022/02/25 03:05:37;;;;;;;0.50;0.30;;;;;;;;;;5082831;28;20032;-45
2022/02/25 03:08:04;;;;;;;0.63;0.40;;;;;;;;;;5092435;28;20024;-44
2022/02/25 03:10:30;;;;;;;0.50;0.50;;;;;;;;;;5091151;28;20514;-47
2022/02/25 03:12:56;;;;;;;0.55;0.40;;;;;;;;;;5090919;28;20041;-44
2022/02/25 03:15:22;;;;;;;0.88;0.50;;;;;;;;;;5078160;28;20052;-45
2022/02/25 03:17:48;;;;;;;1.35;0.60;;;;;;;;;;5071290;28;20029;-45
2022/02/25 03:20:15;;;;;;;1.75;0.30;;;;;;;;;;5072177;28;20024;-47
2022/02/25 03:22:41;;;;;;;0.50;0.20;;;;;;;;;;5071219;28;20077;-46
2022/02/25 03:25:08;;;;;;;2.08;0.80;;;;;;;;;;5071995;28;20024;-46
2022/02/25 03:27:34;;;;;;;0.30;0.30;;;;;;;;;;5070934;28;20110;-44
2022/02/25 03:30:00;;;;;;;0.85;0.40;;;;;;;;;;5072103;28;20036;-45
2022/02/25 03:32:27;;;;;;;0.77;0.35;;;;;;;;;;5086931;28;20086;-49
2022/02/25 03:34:53;;;;;;;0.65;0.40;;;;;;;;;;5091396;28;20028;-45
2022/02/25 03:37:19;;;;;;;1.60;0.38;;;;;;;;;;5091789;28;20465;-47
2022/02/25 03:39:45;;;;;;;0.93;0.50;;;;;;;;;;5085060;28;20099;-48
2022/02/25 03:42:11;;;;;;;0.55;0.30;;;;;;;;;;5082187;28;20028;-44
2022/02/25 03:44:37;;;;;;;2.30;0.65;;;;;;;;;;5076979;28;20035;-48
2022/02/25 03:47:04;;;;;;;0.30;0.22;;;;;;;;;;5071800;28;20033;-45
2022/02/25 03:49:30;;;;;;;1.75;0.30;;;;;;;;;;5071478;28;20032;-44
2022/02/25 03:51:56;;;;;;;1.15;0.47;;;;;;;;;;5080100;28;20028;-48
2022/02/25 03:54:22;;;;;;;0.43;0.28;;;;;;;;;;5091649;28;20028;-51
2022/02/25 03:56:48;;;;;;;0.50;0.40;;;;;;;;;;5091145;28;20020;-44
2022/02/25 03:59:14;;;;;;;0.60;0.60;;;;;;;;;;5089650;28;20024;-48
2022/02/25 04:01:40;;;;;;;0.88;0.40;;;;;;;;;;5071211;28;20033;-46
2022/02/25 04:04:06;;;;;;;1.83;0.70;;;;;;;;;;5071541;28;20047;-44
2022/02/25 04:06:33;;;;;;;0.85;0.30;;;;;;;;;;5070841;28;20027;-46
2022/02/25 04:08:59;;;;;;;0.70;0.40;;;;;;;;;;5088326;28;20028;-45
2022/02/25 04:11:25;;;;;;;1.17;0.50;;;;;;;;;;5090652;28;20022;-49
2022/02/25 04:13:53;;;;;;;1.88;0.40;;;;;;;;;;5070265;28;20051;-47
2022/02/25 04:16:20;;;;;;;0.77;0.40;;;;;;;;;;5075898;28;20110;-44
2022/02/25 04:18:46;;;;;;;1.17;0.30;;;;;;;;;;5074546;28;20466;-47
2022/02/25 04:21:13;;;;;;;0.95;0.40;;;;;;;;;;5075819;28;20036;-45
2022/02/25 04:23:39;;;;;;;1.67;0.75;;;;;;;;;;5093527;28;20137;-48
2022/02/25 04:26:05;;;;;;;1.48;0.50;;;;;;;;;;5095530;28;20125;-44
2022/02/25 04:28:31;;;;;;;0.47;0.47;;;;;;;;;;5094644;28;20101;-47
2022/02/25 04:30:57;;;;;;;2.75;0.38;;;;;;;;;;5095241;28;20104;-49
2022/02/25 04:33:23;;;;;;;1.00;0.35;;;;;;;;;;5078325;28;20069;-46
2022/02/25 04:35:49;;;;;;;1.00;0.75;;;;;;;;;;5075506;28;20073;-47
2022/02/25 04:38:15;;;;;;;1.98;0.52;;;;;;;;;;5075279;28;20112;-47
2022/02/25 04:40:42;;;;;;;0.60;0.35;;;;;;;;;;5074116;28;20115;-47
2022/02/25 04:43:08;;;;;;;3.78;0.50;;;;;;;;;;5087209;28;20032;-47
2022/02/25 04:45:34;;;;;;;0.68;0.50;;;;;;;;;;5074224;28;20035;-47
2022/02/25 04:48:00;;;;;;;0.57;0.38;;;;;;;;;;5074902;28;20389;-44
2022/02/25 04:50:26;;;;;;;1.25;0.68;;;;;;;;;;5086472;28;20027;-45
2022/02/25 04:52:52;;;;;;;0.65;0.35;;;;;;;;;;5093900;28;20202;-46
2022/02/25 04:55:20;;;;;;;1.25;0.40;;;;;;;;;;5094623;28;20030;-44
2022/02/25 04:57:46;;;;;;;0.30;0.28;;;;;;;;;;5094206;28;20024;-44
2022/02/25 05:00:13;;;;;;;0.88;0.40;;;;;;;;;;5094678;28;20028;-44
2022/02/25 05:02:39;;;;;;;1.30;0.40;;;;;;;;;;5085137;28;20416;-44
2022/02/25 05:05:08;;;;;;;0.73;0.40;;;;;;;;;;5074342;28;20450;-44
2022/02/25 05:07:34;;;;;;;0.22;0.20;;;;;;;;;;5073848;28;20375;-47
2022/02/25 05:10:00;;;;;;;0.98;0.38;;;;;;;;;;5075372;28;20029;-44
2022/02/25 05:12:26;;;;;;;0.35;0.35;;;;;;;;;;5074551;28;20032;-47
2022/02/25 05:20:24;;;;;;;0.95;0.30;;;;;;;;;;5093708;28;20102;-46
2022/02/25 05:23:08;;;;;;;0.60;0.30;;;;;;;;;;5094015;28;20058;-48
2022/02/25 05:25:34;;;;;;;1.95;0.50;;;;;;;;;;5093424;28;20024;-47
2022/02/25 05:28:00;;;;;;;1.08;0.60;;;;;;;;;;5093917;28;20031;-46
2022/02/25 05:30:27;;;;;;;0.85;0.52;;;;;;;;;;5093898;28;20051;-44
2022/02/25 05:32:54;;;;;;;1.50;0.50;;;;;;;;;;5093584;28;20020;-45
2022/02/25 05:35:20;;;;;;;0.88;0.32;;;;;;;;;;5093814;28;20028;-45
2022/02/25 05:37:47;;;;;;;1.48;0.70;;;;;;;;;;5093120;28;20035;-46
2022/02/25 05:40:14;;;;;;;1.77;0.65;;;;;;;;;;5093393;28;20419;-44
2022/02/25 05:42:41;;;;;;;0.55;0.47;;;;;;;;;;5093110;28;20012;-44
2022/02/25 05:45:07;;;;;;;1.65;0.40;;;;;;;;;;5075652;28;20401;-44
2022/02/25 05:47:34;;;;;;;1.90;0.70;;;;;;;;;;5073262;28;20085;-51
2022/02/25 05:50:01;;;;;;;1.20;0.68;;;;;;;;;;5089124;28;20020;-46
2022/02/25 05:52:27;;;;;;;1.30;0.65;;;;;;;;;;5094053;28;20028;-44
2022/02/25 05:54:53;;;;;;;1.15;0.60;;;;;;;;;;5093046;28;20615;-45
2022/02/25 05:57:19;;;;;;;1.27;0.50;;;;;;;;;;5085933;28;20029;-44
2022/02/25 05:59:45;;;;;;;0.90;0.47;;;;;;;;;;5085929;28;20036;-45
2022/02/25 06:02:11;;;;;;;1.67;0.60;;;;;;;;;;5090247;28;20024;-44
2022/02/25 06:04:38;;;;;;;0.57;0.50;;;;;;;;;;5072514;28;20508;-47
2022/02/25 06:07:04;;;;;;;0.50;0.30;;;;;;;;;;5072913;28;20021;-45
2022/02/25 06:09:30;;;;;;;1.05;0.93;;;;;;;;;;5083451;28;20066;-45
2022/02/25 06:11:56;;;;;;;2.33;0.45;;;;;;;;;;5092071;28;20032;-46
2022/02/25 06:14:22;;;;;;;2.90;0.50;;;;;;;;;;5093166;28;20075;-44
2022/02/25 06:16:48;;;;;;;2.53;0.70;;;;;;;;;;5091762;28;20024;-45
2022/02/25 06:19:14;;;;;;;1.60;0.75;;;;;;;;;;5084184;28;20029;-58
2022/02/25 06:21:40;;;;;;;1.67;0.70;;;;;;;;;;5072405;28;20025;-58
2022/02/25 06:24:06;;;;;;;3.97;0.98;;;;;;;;;;5073557;28;20025;-58
2022/02/25 06:26:32;;;;;;;1.83;0.55;;;;;;;;;;5092871;28;20024;-59
2022/02/25 06:29:00;;;;;;;2.75;0.70;;;;;;;;;;5085811;28;20029;-59
2022/02/25 06:31:26;;;;;;;2.78;0.70;;;;;;;;;;5072601;28;20074;-60
2022/02/25 06:33:52;;;;;;;2.75;0.63;;;;;;;;;;5072177;28;20032;-58
2022/02/25 06:36:18;;;;;;;3.45;0.90;;;;;;;;;;5072962;28;20067;-59
2022/02/25 06:38:46;;;;;;;4.78;1.02;;;;;;;;;;5074732;28;20035;-59
2022/02/25 06:41:12;;;;;;;1.15;0.82;;;;;;;;;;5092647;28;20115;-59
2022/02/25 06:43:38;;;;;;;3.88;1.17;;;;;;;;;;5078543;28;20366;-60
2022/02/25 06:46:04;;;;;;;2.17;0.75;;;;;;;;;;5093418;28;20461;-57
2022/02/25 06:48:31;;;;;;;4.50;0.75;;;;;;;;;;5093492;28;20028;-62
2022/02/25 06:50:57;;;;;;;2.63;0.93;;;;;;;;;;5080558;28;20028;-63
2022/02/25 06:53:23;;;;;;;1.33;0.70;;;;;;;;;;5059202;28;20354;-63
2022/02/25 06:55:49;;;;;;;3.40;0.75;;;;;;;;;;5091744;28;20027;-62
2022/02/25 06:58:16;;;;;;;4.00;0.82;;;;;;;;;;5072918;28;20029;-61
2022/02/25 07:00:42;;;;;;;4.85;1.55;;;;;;;;;;5091317;28;20032;-60
2022/02/25 07:03:08;;;;;;;3.97;0.95;;;;;;;;;;5091923;28;20472;-60
2022/02/25 07:05:34;;;;;;;3.15;1.20;;;;;;;;;;5091865;28;20028;-60
2022/02/25 07:08:00;;;;;;;7.65;1.17;;;;;;;;;;5091939;28;20111;-62
2022/02/25 07:10:26;;;;;;;2.25;1.00;;;;;;;;;;5074425;28;20037;-61
2022/02/25 07:12:52;;;;;;;8.82;1.95;;;;;;;;;;5078882;28;20078;-61
2022/02/25 07:15:18;;;;;;;3.00;0.75;;;;;;;;;;5090339;28;20066;-61
2022/02/25 07:17:44;;;;;;;3.40;1.10;;;;;;;;;;5090922;28;20035;-60
2022/02/25 07:20:10;;;;;;;3.15;0.90;;;;;;;;;;5091709;28;20024;-60
2022/02/25 07:22:37;;;;;;;5.57;1.02;;;;;;;;;;5091774;28;20028;-65
2022/02/25 07:25:04;;;;;;;2.13;1.02;;;;;;;;;;5092084;28;20028;-60
2022/02/25 07:27:30;;;;;;;2.67;0.80;;;;;;;;;;5080949;28;20032;-60
2022/02/25 07:29:56;;;;;;;2.80;0.82;;;;;;;;;;5070975;28;20024;-60
2022/02/25 07:32:23;;;;;;;3.60;0.65;;;;;;;;;;5071715;28;20031;-60
2022/02/25 07:34:49;;;;;;;4.40;1.38;;;;;;;;;;5071073;28;20072;-60
2022/02/25 07:37:15;;;;;;;3.22;0.70;;;;;;;;;;5071531;28;20469;-60
2022/02/25 07:39:41;;;;;;;4.43;0.93;;;;;;;;;;5085486;28;20109;-60
2022/02/25 07:42:08;;;;;;;1.48;0.70;;;;;;;;;;5079951;28;20020;-48
2022/02/25 07:44:34;;;;;;;3.20;0.80;;;;;;;;;;5071255;28;20426;-50
2022/02/25 07:47:00;;;;;;;1.83;0.93;;;;;;;;;;5070821;28;20113;-49
2022/02/25 07:49:26;;;;;;;2.58;0.73;;;;;;;;;;5083421;28;20059;-47
2022/02/25 07:51:52;;;;;;;2.63;0.80;;;;;;;;;;5091123;28;20024;-47
2022/02/25 07:54:19;;;;;;;4.43;0.90;;;;;;;;;;5092010;28;20111;-46
2022/02/25 07:56:45;;;;;;;3.10;1.00;;;;;;;;;;5090506;28;20042;-47
2022/02/25 07:59:14;;;;;;;2.85;0.73;;;;;;;;;;5063483;28;20119;-46
2022/02/25 08:01:41;;;;;;;1.80;0.90;;;;;;;;;;5070903;28;20427;-50
2022/02/25 08:04:08;;;;;;;2.45;0.80;;;;;;;;;;5072983;28;20055;-46
2022/02/25 08:06:34;;;;;;;1.65;0.90;;;;;;;;;;5091676;28;20036;-51
2022/02/25 08:09:00;;;;;;;3.70;0.85;;;;;;;;;;5080818;28;20063;-47
2022/02/25 08:11:26;;;;;;;1.23;0.68;;;;;;;;;;5071739;28;20060;-49
2022/02/25 08:13:52;;;;;;;4.03;0.75;;;;;;;;;;5082881;28;20456;-50
2022/02/25 08:16:18;;;;;;;4.35;1.20;;;;;;;;;;5090168;28;20028;-48
2022/02/25 08:18:44;;;;;;;9.60;1.10;;;;;;;;;;5090828;28;20082;-50
2022/02/25 08:21:10;;;;;;;2.10;0.98;;;;;;;;;;5091746;28;20446;-46
2022/02/25 08:23:36;;;;;;;4.63;0.98;;;;;;;;;;5085609;28;20534;-49
2022/02/25 08:26:03;;;;;;;2.42;0.77;;;;;;;;;;5070698;28;20032;-46
2022/02/25 08:28:29;;;;;;;2.60;0.80;;;;;;;;;;5082093;28;20035;-48
2022/02/25 08:30:55;;;;;;;2.45;0.80;;;;;;;;;;5087791;28;20024;-50
2022/02/25 08:33:21;;;;;;;5.45;1.25;;;;;;;;;;5071444;28;20052;-52
2022/02/25 08:35:47;;;;;;;1.77;0.70;;;;;;;;;;5070607;28;20068;-52
2022/02/25 08:38:13;;;;;;;2.38;1.00;;;;;;;;;;5071508;28;20029;-47
2022/02/25 08:40:39;;;;;;;3.05;0.98;;;;;;;;;;5071491;28;20029;-46
2022/02/25 08:43:05;;;;;;;2.90;0.77;;;;;;;;;;5088534;28;20477;-49
2022/02/25 08:45:32;;;;;;;2.40;0.70;;;;;;;;;;5071196;28;20374;-46
2022/02/25 08:47:58;;;;;;;2.28;1.05;;;;;;;;;;5080188;28;20031;-47
2022/02/25 08:50:25;;;;;;;2.38;0.77;;;;;;;;;;5089115;28;20575;-46
2022/02/25 08:52:52;;;;;;;1.65;0.50;;;;;;;;;;5078540;28;20067;-49
2022/02/25 08:55:19;;;;;;;2.55;1.17;;;;;;;;;;5071302;28;20054;-48
2022/02/25 08:57:45;;;;;;;2.72;1.00;;;;;;;;;;5070061;28;20032;-48
2022/02/25 09:00:13;;;;;;;1.65;0.63;;;;;;;;;;5084256;28;20098;-50
2022/02/25 09:02:39;;;;;;;3.78;0.98;;;;;;;;;;5092084;28;20051;-47
2022/02/25 09:05:06;;;;;;;3.97;0.90;;;;;;;;;;5094075;28;20031;-45
2022/02/25 09:07:33;;;;;;;2.33;0.70;;;;;;;;;;5094757;28;20020;-49
2022/02/25 09:09:59;;;;;;;3.78;0.90;;;;;;;;;;5093630;28;20028;-45
2022/02/25 09:12:27;;;;;;;1.35;0.65;;;;;;;;;;5089955;28;20048;-45
2022/02/25 09:14:54;;;;;;;3.35;1.58;;;;;;;;;;5093523;28;20047;-47
2022/02/25 09:17:20;;;;;;;4.35;0.98;;;;;;;;;;5093202;28;20481;-46
2022/02/25 09:19:46;;;;;;;1.92;0.65;;;;;;;;;;5093659;28;20036;-47
2022/02/25 09:22:13;;;;;;;1.70;0.90;;;;;;;;;;5087711;28;20100;-47
2022/02/25 09:24:40;;;;;;;3.42;0.75;;;;;;;;;;5073820;28;20462;-45
2022/02/25 09:27:06;;;;;;;2.00;0.75;;;;;;;;;;5079719;28;20420;-45
2022/02/25 09:29:32;;;;;;;3.10;0.98;;;;;;;;;;5094645;28;20119;-47
2022/02/25 09:31:58;;;;;;;1.92;0.90;;;;;;;;;;5088822;28;20024;-46
2022/02/25 09:34:24;;;;;;;3.00;0.98;;;;;;;;;;5074307;28;20063;-49
2022/02/25 09:36:50;;;;;;;1.63;0.70;;;;;;;;;;5080491;28;20484;-45
2022/02/25 09:39:16;;;;;;;4.10;0.60;;;;;;;;;;5094155;28;20070;-46
2022/02/25 09:41:43;;;;;;;2.72;0.77;;;;;;;;;;5093385;28;20020;-47
2022/02/25 09:44:11;;;;;;;1.70;0.85;;;;;;;;;;5083086;28;20021;-45
2022/02/25 09:46:37;;;;;;;1.63;0.70;;;;;;;;;;5084191;28;20101;-45
2022/02/25 09:49:03;;;;;;;2.50;1.15;;;;;;;;;;5093230;28;20031;-45
2022/02/25 09:51:29;;;;;;;2.90;0.73;;;;;;;;;;5093169;28;20028;-46
2022/02/25 09:53:56;;;;;;;2.60;0.52;;;;;;;;;;5072896;28;20077;-47
2022/02/25 09:56:25;;;;;;;1.08;0.50;;;;;;;;;;5073431;28;20024;-45
2022/02/25 09:58:51;;;;;;;2.53;0.73;;;;;;;;;;5072671;28;20498;-45
2022/02/25 10:01:18;;;;;;;1.70;0.55;;;;;;;;;;5073093;28;20462;-44
2022/02/25 10:03:54;;;;;;;2.63;0.75;;;;;;;;;;5091990;28;20032;-49
2022/02/25 10:06:20;;;;;;;1.98;0.70;;;;;;;;;;5080376;28;20078;-45
2022/02/25 10:08:46;;;;;;;3.78;0.77;;;;;;;;;;5080678;28;20062;-50
2022/02/25 10:11:12;;;;;;;2.05;0.60;;;;;;;;;;5093436;28;20020;-45
2022/02/25 10:13:38;;;;;;;2.10;0.63;;;;;;;;;;5089883;28;20035;-45
2022/02/25 10:16:09;;;;;;;1.88;0.57;;;;;;;;;;5092445;28;20629;-45
2022/02/25 10:18:36;;;;;;;1.92;0.50;;;;;;;;;;5092990;28;20491;-45
2022/02/25 10:21:04;;;;;;;1.25;0.50;;;;;;;;;;5092262;28;20477;-45
2022/02/25 10:23:30;;;;;;;0.85;0.68;;;;;;;;;;5092420;28;20027;-44
2022/02/25 10:26:06;;;;;;;2.92;0.77;;;;;;;;;;5092605;28;20456;-45
2022/02/25 10:28:33;;;;;;;0.60;0.40;;;;;;;;;;5093251;28;20457;-45
2022/02/25 10:31:36;;;;;;;2.72;0.90;;;;;;;;;;5091969;28;20081;-45
2022/02/25 10:34:07;;;;;;;2.67;0.90;;;;;;;;;;5039649;28;20032;-46
2022/02/25 10:36:45;;;;;;;1.52;0.60;;;;;;;;;;5092787;28;20024;-45
2022/02/25 10:39:21;;;;;;;1.10;0.47;;;;;;;;;;5092180;28;20027;-45
2022/02/25 10:42:06;;;;;;;1.95;1.13;;;;;;;;;;5092572;28;20024;-48
2022/02/25 10:44:49;;;;;;;2.53;0.82;;;;;;;;;;5092650;28;20028;-45
2022/02/25 10:47:18;;;;;;;1.13;0.50;;;;;;;;;;5072456;28;20386;-49
2022/02/25 10:49:45;;;;;;;2.05;0.60;;;;;;;;;;5077518;28;20027;-47
2022/02/25 10:52:28;;;;;;;2.00;0.60;;;;;;;;;;5092576;28;20024;-45
2022/02/25 10:54:54;;;;;;;1.63;0.60;;;;;;;;;;5091866;28;20087;-47
2022/02/25 10:57:20;;;;;;;2.35;0.82;;;;;;;;;;5092789;28;20020;-46
2022/02/25 10:59:47;;;;;;;1.70;0.55;;;;;;;;;;5091970;28;20502;-50
2022/02/25 11:02:27;;;;;;;1.58;0.70;;;;;;;;;;5092478;28;20024;-48
2022/02/25 11:05:00;;;;;;;3.42;0.88;;;;;;;;;;5091372;28;20028;-45
2022/02/25 11:07:27;;;;;;;1.23;0.70;;;;;;;;;;5072276;28;20362;-46
2022/02/25 11:09:54;;;;;;;4.78;0.80;;;;;;;;;;5079474;28;20051;-50
2022/02/25 11:12:20;;;;;;;1.80;0.65;;;;;;;;;;5092371;28;20038;-47
2022/02/25 11:14:46;;;;;;;1.85;0.55;;;;;;;;;;5092327;28;20046;-52
2022/02/25 11:17:13;;;;;;;1.75;0.63;;;;;;;;;;5092006;28;20066;-49
2022/02/25 11:19:40;;;;;;;2.42;0.82;;;;;;;;;;5091241;28;20036;-45
2022/02/25 11:22:07;;;;;;;1.98;0.60;;;;;;;;;;5091469;28;20024;-47
2022/02/25 11:24:37;;;;;;;1.48;0.50;;;;;;;;;;5091882;28;20114;-47
2022/02/25 11:27:04;;;;;;;1.48;0.63;;;;;;;;;;5091560;28;20024;-48
2022/02/25 11:29:32;;;;;;;1.65;0.57;;;;;;;;;;5091812;28;20024;-47
2022/02/25 11:32:01;;;;;;;2.00;0.70;;;;;;;;;;5091357;28;20028;-47
2022/02/25 11:34:28;;;;;;;1.58;0.88;;;;;;;;;;5091640;28;20028;-46
2022/02/25 11:36:54;;;;;;;2.95;0.77;;;;;;;;;;5091135;28;20468;-47
2022/02/25 11:39:27;;;;;;;1.77;0.70;;;;;;;;;;5091611;28;20488;-47
2022/02/25 11:41:55;;;;;;;1.80;0.65;;;;;;;;;;5090817;28;20589;-48
2022/02/25 11:44:21;;;;;;;2.97;1.40;;;;;;;;;;5083786;28;20369;-48
2022/02/25 11:46:48;;;;;;;1.38;0.60;;;;;;;;;;5090531;28;20063;-49
2022/02/25 11:49:14;;;;;;;1.08;0.65;;;;;;;;;;5090957;28;20484;-46
2022/02/25 11:51:44;;;;;;;1.45;0.70;;;;;;;;;;5091701;28;20127;-46
2022/02/25 11:54:19;;;;;;;4.00;0.60;;;;;;;;;;5091006;28;20027;-47
2022/02/25 11:56:46;;;;;;;2.78;0.70;;;;;;;;;;5091964;28;20131;-46
2022/02/25 11:59:12;;;;;;;3.95;1.02;;;;;;;;;;5090791;28;20056;-46
2022/02/25 12:01:56;;;;;;;1.42;0.40;;;;;;;;;;5091808;28;20086;-46
2022/02/25 12:04:39;;;;;;;1.10;0.50;;;;;;;;;;5091201;28;20032;-48
2022/02/25 12:07:06;;;;;;;1.50;0.55;;;;;;;;;;5090908;28;20026;-45
2022/02/25 12:09:40;;;;;;;0.73;0.43;;;;;;;;;;5091861;28;20040;-49
2022/02/25 12:12:24;;;;;;;1.88;0.68;;;;;;;;;;5090562;28;20033;-45
2022/02/25 12:15:04;;;;;;;1.65;0.93;;;;;;;;;;5090898;28;20041;-48
2022/02/25 12:17:37;;;;;;;1.50;0.70;;;;;;;;;;5091316;28;20032;-50
2022/02/25 12:20:05;;;;;;;2.85;0.55;;;;;;;;;;5089448;28;20028;-49
2022/02/25 12:22:46;;;;;;;1.33;0.73;;;;;;;;;;5091490;28;20131;-47
2022/02/25 12:25:12;;;;;;;1.90;0.50;;;;;;;;;;5090475;28;20039;-45
2022/02/25 12:27:38;;;;;;;1.15;0.50;;;;;;;;;;5091660;28;20027;-45
2022/02/25 12:30:30;;;;;;;1.05;0.43;;;;;;;;;;5090299;28;20024;-48
2022/02/25 12:32:57;;;;;;;;;;;;;;;;;;5088395;28;20066;-45
2022/02/25 12:35:42;;;;;;;2.38;0.88;;;;;;;;;;5091252;28;19965;-44
2022/02/25 12:38:08;;;;;;;3.50;0.60;;;;;;;;;;5094171;28;20092;-45
2022/02/25 12:40:34;;;;;;;2.67;0.60;;;;;;;;;;5095077;28;20032;-46
2022/02/25 12:43:06;;;;;;;5.38;0.88;;;;;;;;;;5090630;28;20026;-45
2022/02/25 12:45:32;;;;;;;1.65;1.00;;;;;;;;;;5074973;28;20029;-44
2022/02/25 12:47:59;;;;;;;1.75;0.85;;;;;;;;;;5082321;28;20038;-46
2022/02/25 12:50:25;;;;;;;2.15;0.73;;;;;;;;;;5094645;28;20073;-44
2022/02/25 12:52:51;;;;;;;2.38;0.80;;;;;;;;;;5094970;28;20028;-49
2022/02/25 12:55:17;;;;;;;2.33;0.77;;;;;;;;;;5094662;28;20026;-50
2022/02/25 12:57:43;;;;;;;7.05;0.85;;;;;;;;;;5094305;28;20376;-46
2022/02/25 13:00:10;;;;;;;3.38;0.90;;;;;;;;;;5084911;28;20033;-50
2022/02/25 13:02:36;;;;;;;3.35;1.02;;;;;;;;;;5074926;28;20029;-46
2022/02/25 13:05:03;;;;;;;3.88;0.95;;;;;;;;;;5073916;28;20478;-50
2022/02/25 13:07:29;;;;;;;3.63;0.77;;;;;;;;;;5074216;28;20024;-47
2022/02/25 13:09:55;;;;;;;1.25;0.60;;;;;;;;;;5074421;28;20063;-48
2022/02/25 13:12:22;;;;;;;3.53;0.70;;;;;;;;;;5074633;28;20033;-48
2022/02/25 13:14:52;;;;;;;1.30;0.50;;;;;;;;;;5074210;28;20053;-51
2022/02/25 13:17:18;;;;;;;3.25;1.20;;;;;;;;;;5092537;28;20036;-49
2022/02/25 13:19:45;;;;;;;4.15;0.80;;;;;;;;;;5089298;28;20028;-52
2022/02/25 13:22:20;;;;;;;1.60;0.82;;;;;;;;;;5073329;28;20025;-51
2022/02/25 13:24:54;;;;;;;2.50;0.85;;;;;;;;;;5074337;28;20029;-49
2022/02/25 13:27:25;;;;;;;2.33;0.75;;;;;;;;;;5091855;28;20056;-48
2022/02/25 13:29:51;;;;;;;3.00;0.85;;;;;;;;;;5088640;28;20108;-48
2022/02/25 13:32:24;;;;;;;2.97;0.90;;;;;;;;;;5074533;28;20135;-51
2022/02/25 13:34:50;;;;;;;2.90;1.23;;;;;;;;;;5074222;28;20024;-54
2022/02/25 13:37:16;;;;;;;1.33;0.50;;;;;;;;;;5073857;28;20028;-48
2022/02/25 13:39:42;;;;;;;1.92;0.50;;;;;;;;;;5077652;28;20020;-47
2022/02/25 13:42:08;;;;;;;2.58;0.75;;;;;;;;;;5093138;28;20541;-46
2022/02/25 13:44:35;;;;;;;2.35;0.80;;;;;;;;;;5080536;28;20063;-47
2022/02/25 13:52:19;;;;;;;2.22;0.80;;;;;;;;;;5073547;28;20032;-46
2022/02/25 13:52:58;;;;;;;3.15;0.70;;;;;;;;;;5009105;28;20038;-54
2022/02/25 13:55:24;;;;;;;2.42;0.60;;;;;;;;;;4992067;28;20026;-47
2022/02/25 13:57:55;;;;;;;3.08;0.68;;;;;;;;;;5032340;28;20041;-46
2022/02/25 14:00:21;;;;;;;;;;;;;;;;;;5085747;28;20032;-50
2022/02/25 14:02:49;;;;;;;2.90;0.80;;;;;;;;;;5093257;28;19991;-49
2022/02/25 14:05:17;;;;;;;1.65;0.57;;;;;;;;;;5076361;28;20020;-50
2022/02/25 14:07:44;;;;;;;1.65;0.57;;;;;;;;;;5073090;28;20024;-52
2022/02/25 14:10:27;;;;;;;2.78;0.90;;;;;;;;;;5082029;28;20024;-50
2022/02/25 14:12:53;;;;;;;2.55;0.82;;;;;;;;;;5092576;28;20469;-52
2022/02/25 14:15:21;;;;;;;1.20;0.47;;;;;;;;;;5092977;28;20078;-48
2022/02/25 14:17:47;;;;;;;1.75;0.50;;;;;;;;;;5093736;28;20376;-47
2022/02/25 14:20:18;;;;;;;1.52;0.85;;;;;;;;;;5082545;28;20477;-46
2022/02/25 14:22:50;;;;;;;0.60;0.30;;;;;;;;;;5073025;28;20108;-50
2022/02/25 14:25:32;;;;;;;2.95;1.17;;;;;;;;;;5092207;28;20361;-47
2022/02/25 14:27:59;;;;;;;;;;;;;;;;;;5092887;28;20362;-49
2022/02/25 14:30:30;;;;;;;1.58;0.73;;;;;;;;;;5092877;28;19910;-49
2022/02/25 14:32:56;;;;;;;2.73;0.90;;;;;;;;;;5092833;28;20100;-54
2022/02/25 14:35:27;;;;;;;1.95;0.80;;;;;;;;;;5091559;28;20020;-47
2022/02/25 14:37:53;;;;;;;2.92;0.80;;;;;;;;;;5092779;28;20024;-52
2022/02/25 14:40:20;;;;;;;1.58;0.50;;;;;;;;;;5086046;28;20075;-47
2022/02/25 14:42:46;;;;;;;1.42;0.60;;;;;;;;;;5081529;28;20420;-47
2022/02/25 14:45:12;;;;;;;2.53;1.08;;;;;;;;;;5074450;28;20793;-48
2022/02/25 14:47:38;;;;;;;1.02;0.63;;;;;;;;;;5092821;28;20028;-46
2022/02/25 14:50:05;;;;;;;1.77;0.73;;;;;;;;;;5091942;28;20026;-46
2022/02/25 14:52:31;;;;;;;1.65;0.65;;;;;;;;;;5086775;28;20425;-50
2022/02/25 14:54:58;;;;;;;1.70;0.52;;;;;;;;;;5053611;28;20028;-51